Terminal Aerodrome Forecast
Issued by NWS

Home | Current Version | Previous Version | Graphics & Text | Print | Product List | Glossary On
Versions: 1 2 3 4 5 6 7 8 9 10 11 12
000
FTUS43 KTOP 011720
TAFFOE
TAF
KFOE 011720Z 0118/0218 VRB04KT P6SM SCT045
     FM020000 18006KT P6SM SKC
     FM021400 23011KT P6SM SCT250=

USA.gov is the U.S. government's official web portal to all federal, state and local government web resources and services.